Observations for NASHVILLE METRO, TN (BNA)

KBNA 270253Z 36004KT 10SM BKN130 BKN180 23/10 A3011 RMK AO2 SLP191 T02280100 53006  
KBNA 270153Z 01006KT 10SM SCT120 BKN150 BKN200 22/11 A3010 RMK AO2 SLP187 T02220106 
KBNA 270053Z VRB06KT 10SM FEW070 SCT120 SCT250 24/11 A3010 RMK AO2 SLP186 T02390106 
KBNA 262353Z 35007KT 330V030 10SM FEW070 SCT130 SCT250 26/09 A3009 RMK AO2 SLP185 T02610094 10283 20256 55010   
KBNA 262253Z 35004KT 10SM FEW065 FEW080 SCT130 SCT250 27/11 A3009 RMK AO2 SLP184 T02720111  
KBNA 262153Z 01007KT 10SM FEW060 FEW080 SCT130 SCT250 27/11 A3011 RMK AO2 SLP191 T02670111  
KBNA 262053Z VRB03G14KT 10SM FEW060 FEW080 SCT130 SCT250 27/12 A3012 RMK AO2 SLP195 T02720117 56020 
KBNA 261953Z 31006KT 10SM FEW080 SCT130 BKN250 27/12 A3014 RMK AO2 SLP202 T02720117 
KBNA 261853Z 31004KT 10SM FEW080 SCT130 BKN200 27/11 A3016 RMK AO2 SLP208 T02720106 
KBNA 261753Z 00000KT 10SM FEW140 BKN200 26/11 A3018 RMK AO2 SLP216 T02610111 10261 20189 58011  
KBNA 261653Z 00000KT 10SM BKN140 25/10 A3021 RMK AO2 SLP224 T02500100   
KBNA 261553Z 05005KT 10SM FEW065 BKN150 BKN200 24/12 A3022 RMK AO2 SLP228 T02440117 
KBNA 261453Z 06006KT 10SM BKN150 BKN220 22/11 A3022 RMK AO2 SLP227 T02220111 51005  
KBNA 261353Z 02006KT 10SM BKN130 21/12 A3022 RMK AO2 SLP227 T02060122   
KBNA 261253Z 33005KT 10SM BKN150 20/13 A3022 RMK AO2 SLP227 T02000133   
KBNA 261153Z 00000KT 10SM BKN150 19/14 A3020 RMK AO2 SLP221 T01890144 10189 20161 51014 
KBNA 261053Z 00000KT 10SM BKN150 18/14 A3020 RMK AO2 SLP219 T01830139   
KBNA 260953Z 00000KT 10SM OVC200 18/14 A3018 RMK AO2 SLP212 T01780139   
KBNA 260853Z 00000KT 10SM BKN200 16/14 A3016 RMK AO2 SLP208 T01610139 55003 
KBNA 260753Z 17003KT 10SM SCT200 17/14 A3016 RMK AO2 SLP206 T01670139   
KBNA 260653Z 00000KT 10SM CLR 17/13 A3017 RMK AO2 SLP208 T01720133  
KBNA 260553Z 00000KT 10SM CLR 17/13 A3017 RMK AO2 SLP211 T01720133 10272 20172 402940167 56006  
KBNA 260453Z 19004KT 10SM CLR 18/13 A3018 RMK AO2 SLP213 T01780133  
KBNA 260353Z 19004KT 10SM CLR 19/13 A3018 RMK AO2 SLP214 T01890128  
KBNA 260253Z 00000KT 10SM CLR 21/12 A3019 RMK AO2 SLP217 T02060117 53005